Oliver Hazard Perry — KOHZ — position and weather

sailwx.info

Track history (hours):
 
Tides and Currents Weather Stations Pressure Air Temp Water Temp Dewpoint Dewpoint Depression Visibility Wind Speed Wind Dir Waves Ship Positions

Oliver Hazard Perry

Owner: Oliver Hazard Perry Rhode Island, Newport, RI. More information available from US FCC via Universal Licensing System and Coast Guard Vessel Documentation Center.

Last reported at 2017-Jul-27 06:59 UTC. Time now 2017-Jul-28 06:37 UTC.
Position N 42°21' W 071°03'.

Length 61 m; draft 3.5 m.

Type: Sailing vessel. MMSI: 367658110.

Date/timePositionNaut miles runAvg speedWind from/ knotsBaromVisibWave heightAir tempDewpointWater temp
2017-Jul-27 06:59N 42°21' W 071°03'0 0.0
2017-Jul-27 03:35N 42°21' W 071°03'0 0.0
2017-Jul-27 03:26N 42°21' W 071°03'0 0.0
2017-Jul-27 02:44N 42°21' W 071°03'0 0.0
2017-Jul-27 00:50N 42°21' W 071°03'0 0.0
2017-Jul-27 00:14N 42°21' W 071°03'0 0.0
2017-Jul-26 23:41N 42°21' W 071°03'0 0.0
2017-Jul-26 23:26N 42°21' W 071°03'0 0.0
2017-Jul-26 22:59N 42°21' W 071°03'0 0.0
2017-Jul-26 22:29N 42°21' W 071°03'0 0.0
2017-Jul-26 22:00N 42°21' W 071°03'2 3.2
2017-Jul-26 21:30N 42°21' W 071°01'2 4.1
2017-Jul-26 20:58N 42°20' W 070°58'0 0.0
2017-Jul-26 20:28N 42°20' W 070°58'1 2.9
2017-Jul-26 20:00N 42°21' W 070°56'3 6.0
2017-Jul-26 19:30N 42°23' W 070°53'3 6.3
2017-Jul-26 19:01N 42°23' W 070°49'3 6.4
2017-Jul-26 18:30N 42°24' W 070°45'3 6.2
2017-Jul-26 18:00N 42°25' W 070°41'3 6.2
2017-Jul-26 17:30N 42°26' W 070°37'3 6.1
2017-Jul-26 17:01N 42°27' W 070°33'3 6.1
2017-Jul-26 16:30N 42°29' W 070°30'3 6.6
2017-Jul-26 16:00N 42°31' W 070°26'3 6.5
2017-Jul-26 15:30N 42°33' W 070°23'3 6.0
2017-Jul-26 15:00N 42°35' W 070°20'4 4.3
2017-Jul-26 13:58N 42°38' W 070°16'1 2.1
2017-Jul-26 13:30N 42°37' W 070°16'1 1.6
2017-Jul-26 13:00N 42°36' W 070°16'1 1.8
2017-Jul-26 12:30N 42°36' W 070°17'1 1.2
2017-Jul-26 12:00N 42°35' W 070°17'0 1.0
2017-Jul-26 11:30N 42°35' W 070°17'1 1.2
2017-Jul-26 11:00N 42°34' W 070°17'1 1.7
2017-Jul-26 10:30N 42°33' W 070°17'1 1.4
2017-Jul-26 10:00N 42°32' W 070°17'1 1.7
2017-Jul-26 09:30N 42°32' W 070°18'1 1.8
2017-Jul-26 09:00N 42°31' W 070°18'1 1.5
2017-Jul-26 08:30N 42°30' W 070°19'1 1.6
2017-Jul-26 08:00N 42°30' W 070°20'0 0.9
2017-Jul-26 07:30N 42°30' W 070°21'1 1.2
2017-Jul-26 07:00N 42°30' W 070°21'1 1.8
2017-Jul-26 06:30N 42°31' W 070°21'1 2.1
2017-Jul-26 06:00N 42°32' W 070°21'1 2.1
2017-Jul-26 05:30N 42°33' W 070°21'2 3.1
2017-Jul-26 05:00N 42°35' W 070°21'1 2.8
2017-Jul-26 04:30N 42°36' W 070°22'2 3.2
2017-Jul-26 04:00N 42°38' W 070°22'2 3.0
2017-Jul-26 03:30N 42°39' W 070°23'1 1.9
2017-Jul-26 03:00N 42°40' W 070°23'1 1.9
2017-Jul-26 02:30N 42°41' W 070°24'1 1.7
2017-Jul-26 02:00N 42°42' W 070°24'1 1.5
2017-Jul-26 01:30N 42°43' W 070°25'0 0.9
2017-Jul-26 01:00N 42°43' W 070°25'0 0.6
2017-Jul-26 00:30N 42°43' W 070°25'0 0.8
2017-Jul-26 00:00N 42°44' W 070°25'0 0.9
2017-Jul-25 23:30N 42°44' W 070°25'0 0.4
2017-Jul-25 23:00N 42°44' W 070°25'0 0.7
2017-Jul-25 22:30N 42°45' W 070°25'0 0.7
2017-Jul-25 22:00N 42°45' W 070°24'1 1.1
2017-Jul-25 21:30N 42°45' W 070°24'1 1.8
2017-Jul-25 21:00N 42°45' W 070°23'1 2.2
2017-Jul-25 20:30N 42°44' W 070°21'1 2.5
2017-Jul-25 20:00N 42°44' W 070°20'2 3.5
2017-Jul-25 19:30N 42°44' W 070°17'2 4.2
2017-Jul-25 19:00N 42°43' W 070°14'2 4.6
2017-Jul-25 18:30N 42°43' W 070°11'96 3.7
2017-Jul-24 16:26N 44°06' W 069°05'0 0.1
2017-Jul-24 11:31N 44°06' W 069°05'0 0.0
2017-Jul-24 11:28N 44°06' W 069°05'0 0.0
2017-Jul-24 10:43N 44°06' W 069°05'0 0.0
2017-Jul-24 09:40N 44°06' W 069°05'0 0.0
2017-Jul-24 08:25N 44°06' W 069°05'0 0.0
2017-Jul-24 06:37N 44°06' W 069°05'0 0.0
2017-Jul-24 06:10N 44°06' W 069°05'0 0.0
2017-Jul-24 05:52N 44°06' W 069°05'0 0.0
2017-Jul-24 05:13N 44°06' W 069°05'0 0.0
2017-Jul-24 04:49N 44°06' W 069°05'0 0.0
2017-Jul-24 03:37N 44°06' W 069°05'0 0.0
2017-Jul-24 03:28N 44°06' W 069°05'0 0.0
2017-Jul-24 02:58N 44°06' W 069°05'2 4.5
2017-Jul-24 02:28N 44°06' W 069°02'3 6.5
2017-Jul-24 02:00N 44°03' W 069°01'4 7.1
2017-Jul-24 01:27N 43°60' W 068°58'  
2017-Jul-21 04:11N 42°41' W 069°55'1 4.7
2017-Jul-21 03:57N 42°41' W 069°56'2 4.4
2017-Jul-21 03:30N 42°39' W 069°57'2 4.2
2017-Jul-21 02:59N 42°37' W 069°58'2 4.2
2017-Jul-21 02:29N 42°35' W 069°60'7 2.6
2017-Jul-20 23:47N 42°28' W 070°03'  
Track history (hours):
 
Tides and Currents Weather Stations Pressure Air Temp Water Temp Dewpoint Dewpoint Depression Visibility Wind Speed Wind Dir Waves Ship Positions

Oliver Hazard Perry

Owner: Oliver Hazard Perry Rhode Island, Newport, RI. More information available from US FCC via Universal Licensing System and Coast Guard Vessel Documentation Center.

Last reported at 2017-Jul-27 06:59 UTC. Time now 2017-Jul-28 06:37 UTC.
Position N 42°21' W 071°03'.

Length 61 m; draft 3.5 m.

Type: Sailing vessel. MMSI: 367658110.

Date/timePositionNaut miles runAvg speedWind from/ knotsBaromVisibWave heightAir tempDewpointWater temp
2017-Jul-27 06:59N 42°21' W 071°03'0 0.0
2017-Jul-27 03:35N 42°21' W 071°03'0 0.0
2017-Jul-27 03:26N 42°21' W 071°03'0 0.0
2017-Jul-27 02:44N 42°21' W 071°03'0 0.0
2017-Jul-27 00:50N 42°21' W 071°03'0 0.0
2017-Jul-27 00:14N 42°21' W 071°03'0 0.0
2017-Jul-26 23:41N 42°21' W 071°03'0 0.0
2017-Jul-26 23:26N 42°21' W 071°03'0 0.0
2017-Jul-26 22:59N 42°21' W 071°03'0 0.0
2017-Jul-26 22:29N 42°21' W 071°03'0 0.0
2017-Jul-26 22:00N 42°21' W 071°03'2 3.2
2017-Jul-26 21:30N 42°21' W 071°01'2 4.1
2017-Jul-26 20:58N 42°20' W 070°58'0 0.0
2017-Jul-26 20:28N 42°20' W 070°58'1 2.9
2017-Jul-26 20:00N 42°21' W 070°56'3 6.0
2017-Jul-26 19:30N 42°23' W 070°53'3 6.3
2017-Jul-26 19:01N 42°23' W 070°49'3 6.4
2017-Jul-26 18:30N 42°24' W 070°45'3 6.2
2017-Jul-26 18:00N 42°25' W 070°41'3 6.2
2017-Jul-26 17:30N 42°26' W 070°37'3 6.1
2017-Jul-26 17:01N 42°27' W 070°33'3 6.1
2017-Jul-26 16:30N 42°29' W 070°30'3 6.6
2017-Jul-26 16:00N 42°31' W 070°26'3 6.5
2017-Jul-26 15:30N 42°33' W 070°23'3 6.0
2017-Jul-26 15:00N 42°35' W 070°20'4 4.3
2017-Jul-26 13:58N 42°38' W 070°16'1 2.1
2017-Jul-26 13:30N 42°37' W 070°16'1 1.6
2017-Jul-26 13:00N 42°36' W 070°16'1 1.8
2017-Jul-26 12:30N 42°36' W 070°17'1 1.2
2017-Jul-26 12:00N 42°35' W 070°17'0 1.0
2017-Jul-26 11:30N 42°35' W 070°17'1 1.2
2017-Jul-26 11:00N 42°34' W 070°17'1 1.7
2017-Jul-26 10:30N 42°33' W 070°17'1 1.4
2017-Jul-26 10:00N 42°32' W 070°17'1 1.7
2017-Jul-26 09:30N 42°32' W 070°18'1 1.8
2017-Jul-26 09:00N 42°31' W 070°18'1 1.5
2017-Jul-26 08:30N 42°30' W 070°19'1 1.6
2017-Jul-26 08:00N 42°30' W 070°20'0 0.9
2017-Jul-26 07:30N 42°30' W 070°21'1 1.2
2017-Jul-26 07:00N 42°30' W 070°21'1 1.8
2017-Jul-26 06:30N 42°31' W 070°21'1 2.1
2017-Jul-26 06:00N 42°32' W 070°21'1 2.1
2017-Jul-26 05:30N 42°33' W 070°21'2 3.1
2017-Jul-26 05:00N 42°35' W 070°21'1 2.8
2017-Jul-26 04:30N 42°36' W 070°22'2 3.2
2017-Jul-26 04:00N 42°38' W 070°22'2 3.0
2017-Jul-26 03:30N 42°39' W 070°23'1 1.9
2017-Jul-26 03:00N 42°40' W 070°23'1 1.9
2017-Jul-26 02:30N 42°41' W 070°24'1 1.7
2017-Jul-26 02:00N 42°42' W 070°24'1 1.5
2017-Jul-26 01:30N 42°43' W 070°25'0 0.9
2017-Jul-26 01:00N 42°43' W 070°25'0 0.6
2017-Jul-26 00:30N 42°43' W 070°25'0 0.8
2017-Jul-26 00:00N 42°44' W 070°25'0 0.9
2017-Jul-25 23:30N 42°44' W 070°25'0 0.4
2017-Jul-25 23:00N 42°44' W 070°25'0 0.7
2017-Jul-25 22:30N 42°45' W 070°25'0 0.7
2017-Jul-25 22:00N 42°45' W 070°24'1 1.1
2017-Jul-25 21:30N 42°45' W 070°24'1 1.8
2017-Jul-25 21:00N 42°45' W 070°23'1 2.2
2017-Jul-25 20:30N 42°44' W 070°21'1 2.5
2017-Jul-25 20:00N 42°44' W 070°20'2 3.5
2017-Jul-25 19:30N 42°44' W 070°17'2 4.2
2017-Jul-25 19:00N 42°43' W 070°14'2 4.6
2017-Jul-25 18:30N 42°43' W 070°11'96 3.7
2017-Jul-24 16:26N 44°06' W 069°05'0 0.1
2017-Jul-24 11:31N 44°06' W 069°05'0 0.0
2017-Jul-24 11:28N 44°06' W 069°05'0 0.0
2017-Jul-24 10:43N 44°06' W 069°05'0 0.0
2017-Jul-24 09:40N 44°06' W 069°05'0 0.0
2017-Jul-24 08:25N 44°06' W 069°05'0 0.0
2017-Jul-24 06:37N 44°06' W 069°05'0 0.0
2017-Jul-24 06:10N 44°06' W 069°05'0 0.0
2017-Jul-24 05:52N 44°06' W 069°05'0 0.0
2017-Jul-24 05:13N 44°06' W 069°05'0 0.0
2017-Jul-24 04:49N 44°06' W 069°05'0 0.0
2017-Jul-24 03:37N 44°06' W 069°05'0 0.0
2017-Jul-24 03:28N 44°06' W 069°05'0 0.0
2017-Jul-24 02:58N 44°06' W 069°05'2 4.5
2017-Jul-24 02:28N 44°06' W 069°02'3 6.5
2017-Jul-24 02:00N 44°03' W 069°01'4 7.1
2017-Jul-24 01:27N 43°60' W 068°58'  
2017-Jul-21 04:11N 42°41' W 069°55'1 4.7
2017-Jul-21 03:57N 42°41' W 069°56'2 4.4
2017-Jul-21 03:30N 42°39' W 069°57'2 4.2
2017-Jul-21 02:59N 42°37' W 069°58'2 4.2
2017-Jul-21 02:29N 42°35' W 069°60'7 2.6
2017-Jul-20 23:47N 42°28' W 070°03'  

Dump ship's entire track history